createdAt,value
2022-11-22T00:01:23.560Z,59.49
2022-11-22T00:06:30.735Z,58.98
2022-11-22T00:11:37.956Z,55.17
2022-11-22T00:16:45.268Z,53.62
2022-11-22T00:21:52.400Z,54.91
2022-11-22T00:26:59.555Z,52.84
2022-11-22T00:32:06.765Z,53.10
2022-11-22T00:37:13.948Z,55.43
2022-11-22T00:42:21.151Z,56.45
2022-11-22T00:47:28.386Z,55.94
2022-11-22T00:52:35.578Z,55.94
2022-11-22T00:57:42.784Z,55.94
2022-11-22T01:02:50.083Z,51.27
2022-11-22T01:07:57.305Z,57.97
2022-11-22T01:13:04.489Z,51.54
2022-11-22T01:18:11.780Z,57.47
2022-11-22T01:23:18.932Z,55.94
2022-11-22T01:28:26.100Z,56.45
2022-11-22T01:33:33.350Z,57.21
2022-11-22T01:38:40.521Z,53.88
2022-11-22T01:43:47.712Z,56.70
2022-11-22T01:48:54.941Z,55.94
2022-11-22T01:54:02.140Z,58.73
2022-11-22T01:59:09.380Z,53.36
2022-11-22T02:04:16.556Z,57.97
2022-11-22T02:09:23.742Z,58.73
2022-11-22T02:14:30.944Z,56.96
2022-11-22T02:19:38.171Z,57.47
2022-11-22T02:24:45.306Z,58.98
2022-11-22T02:29:52.559Z,56.70
2022-11-22T02:34:59.795Z,57.21
2022-11-22T02:40:06.918Z,54.14
2022-11-22T02:45:14.086Z,56.70
2022-11-22T02:50:21.301Z,59.49
2022-11-22T02:55:28.484Z,54.40
2022-11-22T03:00:35.827Z,57.72
2022-11-22T03:05:42.955Z,58.23
2022-11-22T03:10:50.095Z,57.21
2022-11-22T03:15:57.254Z,57.47
2022-11-22T03:21:04.428Z,58.48
2022-11-22T03:26:11.575Z,57.47
2022-11-22T03:31:18.722Z,58.98
2022-11-22T03:36:25.936Z,56.96
2022-11-22T03:41:33.163Z,59.49
2022-11-22T03:46:40.309Z,56.96
2022-11-22T03:51:47.553Z,58.23
2022-11-22T03:56:54.732Z,57.47
2022-11-22T04:02:02.049Z,57.47
2022-11-22T04:07:09.283Z,57.97
2022-11-22T04:12:16.452Z,54.65
2022-11-22T04:17:23.676Z,56.70
2022-11-22T04:22:30.880Z,58.48
2022-11-22T04:27:38.060Z,57.47
2022-11-22T04:32:45.279Z,55.43
2022-11-22T04:37:52.504Z,58.23
2022-11-22T04:42:59.646Z,58.23
2022-11-22T04:48:06.876Z,57.21
2022-11-22T04:53:14.111Z,57.21
2022-11-22T04:58:21.263Z,60.74
2022-11-22T05:03:28.493Z,54.14
2022-11-22T05:08:35.774Z,60.74
2022-11-22T05:13:42.940Z,56.19
2022-11-22T05:18:50.192Z,55.94
2022-11-22T05:23:57.399Z,57.97
2022-11-22T05:29:04.614Z,57.47
2022-11-22T05:34:11.823Z,57.72
2022-11-22T05:39:19.090Z,58.48
2022-11-22T05:44:26.226Z,59.99
2022-11-22T05:49:33.555Z,57.72
2022-11-22T05:54:40.661Z,57.21
2022-11-22T05:59:47.843Z,57.72
2022-11-22T06:04:55.055Z,58.98
2022-11-22T06:10:02.324Z,57.97
2022-11-22T06:15:09.482Z,57.21
2022-11-22T06:20:16.654Z,57.72
2022-11-22T06:25:23.903Z,57.72
2022-11-22T06:30:31.071Z,57.72
2022-11-22T06:35:38.276Z,57.97
2022-11-22T06:40:45.516Z,58.48
2022-11-22T06:45:52.729Z,58.73
2022-11-22T06:50:59.903Z,59.74
2022-11-22T06:56:07.151Z,56.19
2022-11-22T07:01:14.425Z,60.74
2022-11-22T07:06:21.529Z,55.17
2022-11-22T07:11:28.784Z,58.23
2022-11-22T07:16:36.030Z,62.97
2022-11-22T07:21:43.250Z,61.73
2022-11-22T07:26:50.460Z,61.48
2022-11-22T07:31:57.643Z,63.22
2022-11-22T07:37:08.866Z,61.48
2022-11-22T07:42:12.016Z,60.74
2022-11-22T07:47:23.177Z,58.73
2022-11-22T07:52:29.756Z,61.48
2022-11-22T07:57:38.994Z,60.99
2022-11-22T08:02:46.087Z,62.48
2022-11-22T08:07:53.512Z,61.24
2022-11-22T08:13:00.633Z,60.49
2022-11-22T08:18:07.725Z,60.74
2022-11-22T08:23:14.918Z,61.98
2022-11-22T08:28:22.297Z,63.96
2022-11-22T08:33:29.427Z,61.73
2022-11-22T08:38:36.639Z,60.99
2022-11-22T08:43:44.020Z,63.47
2022-11-22T08:48:51.144Z,62.72
2022-11-22T08:53:58.331Z,62.97
2022-11-22T08:59:06.325Z,61.73
2022-11-22T09:04:13.591Z,59.99
2022-11-22T09:09:37.644Z,60.74
2022-11-22T09:14:28.165Z,58.73
2022-11-22T09:19:46.250Z,62.48
2022-11-22T09:25:08.398Z,60.74
2022-11-22T09:30:16.048Z,60.49
2022-11-22T09:35:23.128Z,60.99
2022-11-22T09:40:30.318Z,61.48
2022-11-22T09:45:37.645Z,59.23
2022-11-22T09:50:44.839Z,61.24
2022-11-22T09:55:52.043Z,62.48
2022-11-22T10:00:59.443Z,61.24
2022-11-22T10:06:06.744Z,61.48
2022-11-22T10:11:13.969Z,61.73
2022-11-22T10:16:21.312Z,59.23
2022-11-22T10:21:28.360Z,64.20
2022-11-22T10:26:35.575Z,61.98
2022-11-22T10:31:42.884Z,62.97
2022-11-22T10:36:49.989Z,61.48
2022-11-22T10:41:57.156Z,61.48
2022-11-22T10:47:04.543Z,62.23
2022-11-22T10:52:11.644Z,61.98
2022-11-22T10:57:18.790Z,61.24
2022-11-22T11:02:26.135Z,63.22
2022-11-22T11:07:33.260Z,59.49
2022-11-22T11:12:40.395Z,60.99
2022-11-22T11:17:47.722Z,59.49
2022-11-22T11:28:02.008Z,62.23
2022-11-22T11:33:09.353Z,63.71
2022-11-22T11:38:16.427Z,62.72
2022-11-22T11:43:23.656Z,61.48
2022-11-22T11:48:30.971Z,59.49
2022-11-22T11:53:38.048Z,60.24
2022-11-22T11:58:45.324Z,59.49
2022-11-22T12:03:52.707Z,59.23
2022-11-22T12:08:59.790Z,59.99
2022-11-22T12:14:22.497Z,61.73
2022-11-22T12:19:14.434Z,60.99
2022-11-22T12:29:28.687Z,59.74
2022-11-22T12:34:36.024Z,59.49
2022-11-22T12:39:43.161Z,62.23
2022-11-22T12:44:50.332Z,61.48
2022-11-22T12:49:57.617Z,59.23
2022-11-22T12:55:04.708Z,59.99
2022-11-22T13:00:11.869Z,62.48
2022-11-22T13:05:19.177Z,60.74
2022-11-22T13:10:26.184Z,60.99
2022-11-22T13:15:33.420Z,61.48
2022-11-22T13:20:43.246Z,59.74
2022-11-22T13:25:47.835Z,59.49
2022-11-22T13:30:54.999Z,61.24
2022-11-22T13:36:02.369Z,61.24
2022-11-22T13:41:09.453Z,62.97
2022-11-22T13:46:16.652Z,63.71
2022-11-22T13:51:24.399Z,62.72
2022-11-22T13:56:31.588Z,59.23
2022-11-22T14:01:38.903Z,59.23
2022-11-22T14:06:46.172Z,58.98
2022-11-22T14:11:53.329Z,60.99
2022-11-22T14:17:00.512Z,61.48
2022-11-22T14:22:07.821Z,61.73
2022-11-22T14:27:15.952Z,62.48
2022-11-22T14:32:23.171Z,59.74
2022-11-22T14:37:30.663Z,63.47
2022-11-22T14:42:37.773Z,61.98
2022-11-22T14:47:44.939Z,60.49
2022-11-22T14:52:52.231Z,61.73
2022-11-22T14:57:59.270Z,61.73
2022-11-22T15:03:06.482Z,61.48
2022-11-22T15:09:10.444Z,62.23
2022-11-22T15:13:20.948Z,62.72
2022-11-22T15:59:26.057Z,57.47
2022-11-22T16:04:33.393Z,58.73
2022-11-22T16:09:40.474Z,58.73
2022-11-22T16:14:48.035Z,57.47
2022-11-22T16:19:55.360Z,54.40
2022-11-22T16:25:06.193Z,56.96
2022-11-22T16:30:09.958Z,58.48
2022-11-22T16:35:29.052Z,59.23
2022-11-22T16:40:25.834Z,58.73
2022-11-22T16:45:33.115Z,58.48
2022-11-22T16:50:40.525Z,61.24
2022-11-22T16:55:48.159Z,58.48
2022-11-22T17:00:55.485Z,59.74
2022-11-22T17:06:02.846Z,58.23
2022-11-22T17:11:11.627Z,59.23
2022-11-22T17:16:18.750Z,61.73
2022-11-22T17:21:26.323Z,61.24
2022-11-22T17:26:34.157Z,60.99
2022-11-22T17:31:41.736Z,58.48
2022-11-22T17:36:49.065Z,58.73
2022-11-22T17:41:56.785Z,56.96
2022-11-22T17:47:04.380Z,59.99
2022-11-22T17:52:13.221Z,58.73
2022-11-22T17:57:20.764Z,60.74
2022-11-22T18:02:28.250Z,58.48
2022-11-22T18:07:35.603Z,57.47
2022-11-22T18:12:58.599Z,56.70
2022-11-22T18:17:50.218Z,63.71
2022-11-22T18:22:57.885Z,60.99
2022-11-22T18:28:05.520Z,55.94
2022-11-22T18:33:13.108Z,57.47
2022-11-22T18:38:20.450Z,57.47
2022-11-22T18:43:28.052Z,57.72
2022-11-22T18:48:35.544Z,57.21
2022-11-22T18:53:43.272Z,58.23
2022-11-22T18:58:51.294Z,56.96
2022-11-22T19:03:59.017Z,56.96
2022-11-22T19:09:06.828Z,60.74
2022-11-22T19:14:14.567Z,57.47
2022-11-22T19:19:22.628Z,57.72
2022-11-22T19:24:30.985Z,58.98
2022-11-22T19:29:38.519Z,57.97
2022-11-22T19:34:46.329Z,57.47
2022-11-22T19:39:54.667Z,57.21
2022-11-22T19:45:02.514Z,57.21
2022-11-22T19:50:09.989Z,58.23
2022-11-22T19:55:17.603Z,56.96
2022-11-22T20:00:25.338Z,58.48
2022-11-22T20:05:33.349Z,61.48
2022-11-22T20:10:40.510Z,61.48
2022-11-22T20:15:48.148Z,61.73
2022-11-22T20:20:55.786Z,60.74
2022-11-22T20:26:03.653Z,61.48
2022-11-22T20:31:11.534Z,60.49
2022-11-22T20:36:19.144Z,60.74
2022-11-22T20:41:26.856Z,58.48
2022-11-22T20:46:34.284Z,61.48
2022-11-22T20:51:41.669Z,60.24
2022-11-22T20:56:49.284Z,61.24
2022-11-22T21:01:57.021Z,59.49
2022-11-22T21:07:04.329Z,59.49
2022-11-22T21:12:12.323Z,60.99
2022-11-22T21:17:39.677Z,62.48
2022-11-22T21:22:31.477Z,60.99
2022-11-22T21:27:34.254Z,58.48
2022-11-22T21:32:41.524Z,63.47
2022-11-22T21:37:48.691Z,58.48
2022-11-22T21:42:56.094Z,62.97
2022-11-22T21:48:03.513Z,60.99
2022-11-22T21:53:10.582Z,61.24
2022-11-22T21:58:17.788Z,61.73
2022-11-22T22:03:25.163Z,60.49
2022-11-22T22:08:32.364Z,60.74
2022-11-22T22:13:39.540Z,61.98
2022-11-22T22:18:46.871Z,61.48
2022-11-22T22:23:53.936Z,59.49
2022-11-22T22:29:01.163Z,60.99
2022-11-22T22:34:08.565Z,60.49
2022-11-22T22:39:15.742Z,61.24
2022-11-22T22:44:22.963Z,60.99
2022-11-22T22:49:30.707Z,61.73
2022-11-22T22:54:37.360Z,61.24
2022-11-22T22:59:44.578Z,63.22
2022-11-22T23:04:51.828Z,60.74
2022-11-22T23:09:58.899Z,60.49
2022-11-22T23:15:06.104Z,60.99
2022-11-22T23:20:13.394Z,61.24
2022-11-22T23:25:20.472Z,61.24
2022-11-22T23:30:27.714Z,58.73
2022-11-22T23:35:35.011Z,61.24
2022-11-22T23:40:42.090Z,60.99
2022-11-22T23:45:49.295Z,60.99
2022-11-22T23:50:56.664Z,61.24
2022-11-22T23:56:03.711Z,57.21
